createdAt,value
2023-04-19T00:00:19.574Z,23.00
2023-04-19T00:03:24.869Z,24.50
2023-04-19T00:06:30.591Z,22.60
2023-04-19T00:09:33.796Z,20.40
2023-04-19T00:12:37.174Z,23.00
2023-04-19T00:15:42.020Z,19.75
2023-04-19T00:18:45.611Z,23.50
2023-04-19T00:21:49.024Z,24.60
2023-04-19T00:24:52.339Z,21.75
2023-04-19T00:27:55.628Z,22.00
2023-04-19T00:31:00.426Z,23.00
2023-04-19T00:34:04.033Z,21.60
2023-04-19T00:37:07.258Z,21.80
2023-04-19T00:40:11.230Z,23.20
2023-04-19T00:43:18.816Z,22.00
2023-04-19T00:46:23.815Z,21.00
2023-04-19T00:49:28.058Z,22.80
2023-04-19T00:52:31.495Z,23.60
2023-04-19T00:55:34.822Z,18.00
2023-04-19T00:58:39.857Z,24.60
2023-04-19T01:01:44.782Z,25.00
2023-04-19T01:04:48.309Z,24.00
2023-04-19T01:07:51.554Z,25.00
2023-04-19T01:10:54.855Z,22.50
2023-04-19T01:13:58.654Z,31.00
2023-04-19T01:17:03.311Z,22.40
2023-04-19T01:20:08.209Z,23.40
2023-04-19T01:23:13.035Z,22.50
2023-04-19T01:26:16.327Z,23.80
2023-04-19T01:29:22.090Z,22.75
2023-04-19T01:32:26.403Z,21.80
2023-04-19T01:35:32.522Z,21.80
2023-04-19T01:38:37.191Z,21.60
2023-04-19T01:41:40.473Z,24.00
2023-04-19T01:44:43.648Z,26.00
2023-04-19T01:47:47.043Z,26.00
2023-04-19T01:50:50.513Z,24.50
2023-04-19T01:53:55.130Z,24.75
2023-04-19T01:56:59.506Z,27.00
2023-04-19T02:00:03.273Z,25.40
2023-04-19T02:03:17.575Z,27.00
2023-04-19T02:06:21.229Z,25.40
2023-04-19T02:09:28.018Z,25.40
2023-04-19T02:12:31.913Z,27.00
2023-04-19T02:15:35.361Z,24.00
2023-04-19T02:18:40.728Z,22.80
2023-04-19T02:21:43.981Z,25.40
2023-04-19T02:24:52.413Z,25.75
2023-04-19T02:27:55.658Z,27.00
2023-04-19T02:30:59.473Z,24.00
2023-04-19T02:34:04.302Z,25.60
2023-04-19T02:37:09.340Z,25.60
2023-04-19T02:40:14.115Z,26.00
2023-04-19T02:43:17.305Z,25.60
2023-04-19T02:46:20.575Z,26.67
2023-04-19T02:49:24.108Z,27.00
2023-04-19T02:52:28.365Z,26.67
2023-04-19T02:55:33.406Z,29.40
2023-04-19T02:58:48.889Z,29.00
2023-04-19T03:01:52.740Z,24.20
2023-04-19T03:04:56.408Z,25.00
2023-04-19T03:07:59.980Z,24.00
2023-04-19T03:11:04.821Z,28.50
2023-04-19T03:14:08.003Z,28.00
2023-04-19T03:17:11.780Z,24.00
2023-04-19T03:20:17.192Z,25.75
2023-04-19T03:23:20.680Z,25.00
2023-04-19T03:26:25.756Z,24.60
2023-04-19T03:29:30.780Z,23.20
2023-04-19T03:32:38.188Z,22.00
2023-04-19T03:35:42.681Z,22.00
2023-04-19T03:38:47.891Z,21.40
2023-04-19T03:41:57.344Z,22.60
2023-04-19T03:45:23.651Z,20.00
2023-04-19T03:48:28.078Z,21.60
2023-04-19T03:51:32.882Z,20.00
2023-04-19T03:54:36.678Z,17.00
2023-04-19T03:57:44.182Z,18.25
2023-04-19T04:00:56.738Z,21.00
2023-04-19T04:04:02.269Z,19.00
2023-04-19T04:07:07.949Z,19.00
2023-04-19T04:10:11.648Z,17.60
2023-04-19T04:13:20.137Z,19.20
2023-04-19T04:16:31.584Z,20.00
2023-04-19T04:19:35.318Z,16.60
2023-04-19T04:22:42.207Z,17.40
2023-04-19T04:25:47.623Z,14.00
2023-04-19T04:28:53.844Z,17.20
2023-04-19T04:31:58.045Z,18.60
2023-04-19T04:35:08.329Z,17.80
2023-04-19T04:38:41.555Z,17.40
2023-04-19T04:41:44.871Z,20.00
2023-04-19T04:44:51.089Z,16.00
2023-04-19T04:47:54.493Z,17.00
2023-04-19T04:50:58.018Z,17.00
2023-04-19T04:54:02.458Z,17.00
2023-04-19T04:57:06.237Z,18.00
2023-04-19T05:00:12.765Z,18.00
2023-04-19T05:03:24.911Z,17.40
2023-04-19T05:06:33.534Z,17.75
2023-04-19T05:09:36.802Z,16.40
2023-04-19T05:12:40.295Z,17.60
2023-04-19T05:15:45.197Z,17.60
2023-04-19T05:18:48.455Z,17.00
2023-04-19T05:21:52.198Z,18.00
2023-04-19T05:24:55.568Z,16.00
2023-04-19T05:27:59.119Z,17.80
2023-04-19T05:31:09.786Z,17.00
2023-04-19T05:34:22.326Z,18.75
2023-04-19T05:37:26.790Z,17.00
2023-04-19T05:40:30.486Z,17.50
2023-04-19T05:43:35.141Z,15.00
2023-04-19T05:46:40.864Z,15.00
2023-04-19T05:49:47.378Z,15.60
2023-04-19T05:52:58.997Z,14.60
2023-04-19T05:56:02.395Z,14.60
2023-04-19T05:59:06.863Z,15.20
2023-04-19T06:02:11.618Z,16.00
2023-04-19T06:05:15.024Z,14.50
2023-04-19T06:08:19.202Z,15.50
2023-04-19T06:11:31.447Z,13.00
2023-04-19T06:14:39.399Z,13.50
2023-04-19T06:17:44.462Z,11.80
2023-04-19T06:20:47.973Z,11.25
2023-04-19T06:23:51.377Z,14.00
2023-04-19T06:26:54.710Z,16.00
2023-04-19T06:29:57.902Z,14.50
2023-04-19T06:33:02.626Z,11.00
2023-04-19T06:36:06.801Z,13.00
2023-04-19T06:39:11.088Z,12.00
2023-04-19T06:42:14.335Z,16.50
2023-04-19T06:45:17.724Z,16.00
2023-04-19T06:48:22.344Z,13.00
2023-04-19T06:51:26.045Z,16.00
2023-04-19T06:54:29.277Z,13.25
2023-04-19T06:57:32.551Z,15.00
2023-04-19T07:00:36.081Z,15.25
2023-04-19T07:03:41.043Z,18.40
2023-04-19T07:06:44.523Z,17.00
2023-04-19T07:09:47.730Z,15.00
2023-04-19T07:12:51.010Z,17.00
2023-04-19T07:15:54.214Z,19.00
2023-04-19T07:18:58.959Z,18.00
2023-04-19T07:22:03.171Z,19.00
2023-04-19T07:25:07.202Z,20.00
2023-04-19T07:28:10.476Z,17.40
2023-04-19T07:31:16.881Z,17.60
2023-04-19T07:34:21.500Z,19.00
2023-04-19T07:37:24.700Z,19.60
2023-04-19T07:40:28.716Z,21.00
2023-04-19T07:43:31.981Z,19.00
2023-04-19T07:46:35.394Z,18.00
2023-04-19T07:49:40.149Z,21.60
2023-04-19T07:52:43.426Z,17.00
2023-04-19T07:55:46.778Z,14.00
2023-04-19T07:59:04.256Z,11.50
2023-04-19T08:02:11.312Z,11.67
2023-04-19T08:05:18.044Z,11.40
2023-04-19T08:08:21.394Z,9.80
2023-04-19T08:11:25.752Z,10.20
2023-04-19T08:14:40.602Z,8.40
2023-04-19T08:17:47.391Z,6.00
2023-04-19T08:20:52.021Z,5.80
2023-04-19T08:23:55.355Z,4.40
2023-04-19T08:27:00.127Z,7.00
2023-04-19T08:30:03.722Z,5.60
2023-04-19T08:33:07.451Z,6.75
2023-04-19T08:36:13.785Z,5.60
2023-04-19T08:39:31.547Z,5.80
2023-04-19T08:42:37.338Z,6.00
2023-04-19T08:45:41.182Z,4.60
2023-04-19T08:48:46.420Z,6.00
2023-04-19T08:51:51.882Z,6.20
2023-04-19T08:54:56.417Z,8.00
2023-04-19T08:57:59.819Z,7.00
2023-04-19T09:01:05.596Z,9.20
2023-04-19T09:04:34.499Z,7.75
2023-04-19T09:07:34.218Z,7.60
2023-04-19T09:10:38.172Z,6.00
2023-04-19T09:13:44.768Z,7.60
2023-04-19T09:16:48.293Z,6.00
2023-04-19T09:19:51.788Z,9.00
2023-04-19T09:23:06.660Z,5.40
2023-04-19T09:26:23.023Z,7.50
2023-04-19T09:29:27.728Z,7.00
2023-04-19T09:32:46.271Z,8.00
2023-04-19T09:35:49.688Z,8.00
2023-04-19T09:38:54.566Z,8.00
2023-04-19T09:41:58.350Z,6.00
2023-04-19T09:45:28.205Z,5.80
2023-04-19T09:48:25.208Z,7.00
2023-04-19T09:51:41.699Z,6.00
2023-04-19T09:54:46.858Z,5.00
2023-04-19T09:57:50.295Z,7.50
2023-04-19T10:01:02.764Z,6.00
2023-04-19T10:04:31.736Z,5.60
2023-04-19T10:07:45.301Z,6.00
2023-04-19T10:10:55.014Z,7.60
2023-04-19T10:14:01.775Z,8.00
2023-04-19T10:17:30.976Z,6.00
2023-04-19T10:20:38.742Z,7.00
2023-04-19T10:23:42.090Z,7.00
2023-04-19T10:27:11.673Z,8.00
2023-04-19T10:30:19.250Z,8.80
2023-04-19T10:33:27.143Z,10.00
2023-04-19T10:36:31.142Z,6.00
2023-04-19T10:39:41.433Z,7.00
2023-04-19T10:43:17.878Z,7.00
2023-04-19T10:46:40.285Z,7.00
2023-04-19T10:49:47.101Z,8.00
2023-04-19T10:52:50.452Z,8.00
2023-04-19T10:55:53.730Z,9.50
2023-04-19T10:59:23.471Z,7.00
2023-04-19T11:02:30.971Z,8.20
2023-04-19T11:06:19.286Z,7.50
2023-04-19T11:09:24.176Z,6.80
2023-04-19T11:12:28.033Z,11.40
2023-04-19T11:15:32.893Z,8.00
2023-04-19T11:18:36.272Z,8.75
2023-04-19T11:21:41.862Z,10.00
2023-04-19T11:24:48.455Z,8.80
2023-04-19T11:27:53.521Z,8.60
2023-04-19T11:30:58.866Z,7.00
2023-04-19T11:34:02.179Z,7.40
2023-04-19T11:37:05.543Z,8.00
2023-04-19T11:40:10.054Z,11.80
2023-04-19T11:43:13.550Z,11.00
2023-04-19T11:46:18.482Z,10.60
2023-04-19T11:49:27.304Z,10.40
2023-04-19T11:52:31.005Z,11.20
2023-04-19T11:55:34.825Z,13.00
2023-04-19T11:58:40.133Z,14.00
2023-04-19T12:01:44.795Z,12.00
2023-04-19T12:04:48.283Z,13.00
2023-04-19T12:08:03.055Z,11.00
2023-04-19T12:11:07.719Z,13.00
2023-04-19T12:14:11.553Z,11.20
2023-04-19T12:17:16.839Z,9.00
2023-04-19T12:20:30.767Z,12.40
2023-04-19T12:23:34.054Z,12.40
2023-04-19T12:26:37.739Z,10.25
2023-04-19T12:29:41.138Z,15.00
2023-04-19T12:32:45.851Z,13.60
2023-04-19T12:35:49.268Z,14.00
2023-04-19T12:38:52.533Z,13.00
2023-04-19T12:41:56.053Z,10.00
2023-04-19T12:44:59.545Z,14.40
2023-04-19T12:48:04.645Z,11.00
2023-04-19T12:51:07.890Z,13.00
2023-04-19T12:54:11.149Z,10.80
2023-04-19T12:57:14.341Z,15.00
2023-04-19T13:00:18.352Z,15.00
2023-04-19T13:03:22.995Z,12.60
2023-04-19T13:06:26.414Z,16.00
2023-04-19T13:09:30.101Z,12.60
2023-04-19T13:12:33.420Z,12.80
2023-04-19T13:15:36.670Z,14.00
2023-04-19T13:18:42.248Z,14.00
2023-04-19T13:21:45.614Z,16.00
2023-04-19T13:24:49.272Z,11.60
2023-04-19T13:27:52.658Z,14.40
2023-04-19T13:30:56.050Z,13.00
2023-04-19T13:34:01.081Z,13.00
2023-04-19T13:37:04.322Z,14.00
2023-04-19T13:40:18.741Z,13.60
2023-04-19T13:43:22.783Z,16.00
2023-04-19T13:46:26.054Z,13.25
2023-04-19T13:49:30.911Z,13.40
2023-04-19T13:52:34.535Z,14.00
2023-04-19T13:55:37.808Z,15.00
2023-04-19T13:58:41.005Z,15.00
2023-04-19T14:01:44.220Z,15.40
2023-04-19T14:04:48.871Z,17.80
2023-04-19T14:07:52.595Z,15.00
2023-04-19T14:10:55.885Z,15.00
2023-04-19T14:13:59.319Z,15.25
2023-04-19T14:17:02.521Z,14.00
2023-04-19T14:20:09.007Z,15.50
2023-04-19T14:23:12.536Z,15.00
2023-04-19T14:26:16.105Z,13.00
2023-04-19T14:29:19.374Z,14.00
2023-04-19T14:32:26.479Z,13.40
2023-04-19T14:35:31.873Z,15.25
2023-04-19T14:38:36.401Z,12.80
2023-04-19T14:41:39.640Z,16.00
2023-04-19T14:44:42.882Z,15.00
2023-04-19T14:47:46.124Z,16.20
2023-04-19T14:50:51.152Z,15.80
2023-04-19T14:53:54.366Z,14.00
2023-04-19T14:56:57.782Z,14.00
2023-04-19T15:00:01.292Z,17.00
2023-04-19T15:03:04.876Z,15.00
2023-04-19T15:06:09.690Z,15.00
2023-04-19T15:09:13.095Z,17.00
2023-04-19T15:12:16.358Z,13.60
2023-04-19T15:15:19.846Z,16.00
2023-04-19T15:18:23.128Z,16.80
2023-04-19T15:21:28.310Z,17.20
2023-04-19T15:24:31.681Z,16.75
2023-04-19T15:27:34.891Z,14.80
2023-04-19T15:30:38.107Z,17.75
2023-04-19T15:33:41.328Z,16.00
2023-04-19T15:36:46.152Z,15.00
2023-04-19T15:39:50.336Z,16.40
2023-04-19T15:42:54.297Z,15.00
2023-04-19T15:45:57.598Z,15.80
2023-04-19T15:49:03.930Z,17.00
2023-04-19T15:52:09.881Z,16.00
2023-04-19T15:55:13.176Z,16.80
2023-04-19T15:58:16.849Z,13.00
2023-04-19T16:01:20.169Z,18.00
2023-04-19T16:04:23.584Z,17.50
2023-04-19T16:07:28.554Z,17.00
2023-04-19T16:10:32.010Z,16.40
2023-04-19T16:13:35.318Z,16.50
2023-04-19T16:16:38.653Z,16.40
2023-04-19T16:19:41.950Z,19.00
2023-04-19T16:22:46.807Z,18.40
2023-04-19T16:25:50.109Z,17.20
2023-04-19T16:28:53.379Z,18.00
2023-04-19T16:31:56.991Z,17.00
2023-04-19T16:35:00.341Z,16.00
2023-04-19T16:38:07.250Z,20.00
2023-04-19T16:41:11.614Z,18.20
2023-04-19T16:44:14.914Z,18.00
2023-04-19T16:47:18.141Z,18.00
2023-04-19T16:50:21.618Z,21.00
2023-04-19T16:53:26.477Z,22.80
2023-04-19T16:56:29.839Z,20.00
2023-04-19T16:59:33.079Z,21.33
2023-04-19T17:02:36.556Z,20.00
2023-04-19T17:05:39.862Z,17.00
2023-04-19T17:08:44.508Z,22.75
2023-04-19T17:11:47.800Z,22.20
2023-04-19T17:14:51.188Z,20.80
2023-04-19T17:17:54.497Z,20.00
2023-04-19T17:20:58.525Z,20.00
2023-04-19T17:24:03.448Z,20.80
2023-04-19T17:27:06.715Z,19.00
2023-04-19T17:30:10.632Z,22.00
2023-04-19T17:33:14.220Z,19.40
2023-04-19T17:36:18.691Z,23.00
2023-04-19T17:39:27.694Z,18.00
2023-04-19T17:42:30.975Z,20.60
2023-04-19T17:45:34.225Z,21.50
2023-04-19T17:48:37.460Z,21.00
2023-04-19T17:51:41.058Z,22.00
2023-04-19T17:54:46.027Z,21.60
2023-04-19T17:57:49.348Z,18.60
2023-04-19T18:00:52.606Z,21.20
2023-04-19T18:03:55.979Z,26.00
2023-04-19T18:06:59.683Z,23.40
2023-04-19T18:10:05.237Z,25.50
2023-04-19T18:13:08.515Z,24.50
2023-04-19T18:16:12.333Z,27.00
2023-04-19T18:19:15.772Z,24.00
2023-04-19T18:22:19.294Z,26.50
2023-04-19T18:25:23.936Z,24.00
2023-04-19T18:28:27.192Z,28.00
2023-04-19T18:31:30.464Z,24.75
2023-04-19T18:34:34.061Z,24.20
2023-04-19T18:37:37.344Z,26.75
2023-04-19T18:40:42.130Z,21.00
2023-04-19T18:44:06.570Z,24.00
2023-04-19T18:47:08.650Z,24.75
2023-04-19T18:50:12.084Z,25.00
2023-04-19T18:53:15.798Z,25.00
2023-04-19T18:56:21.244Z,22.00
2023-04-19T18:59:24.522Z,26.80
2023-04-19T19:02:28.242Z,24.33
2023-04-19T19:05:32.244Z,24.20
2023-04-19T19:08:36.548Z,23.00
2023-04-19T19:14:47.385Z,25.50
2023-04-19T19:17:51.017Z,26.40
2023-04-19T19:20:59.153Z,24.20
2023-04-19T19:24:02.974Z,25.25
2023-04-19T19:27:07.599Z,23.00
2023-04-19T19:30:11.570Z,25.00
2023-04-19T19:33:14.995Z,27.00
2023-04-19T19:36:18.197Z,25.50
2023-04-19T19:39:21.845Z,25.60
2023-04-19T19:42:26.473Z,24.00
2023-04-19T19:45:30.161Z,24.60
2023-04-19T19:48:40.165Z,23.00
2023-04-19T19:51:57.550Z,23.80
2023-04-19T19:55:02.208Z,23.60
2023-04-19T20:01:13.297Z,23.00
2023-04-19T20:04:16.660Z,24.40
2023-04-19T20:10:26.086Z,25.00
2023-04-19T20:13:30.580Z,26.80
2023-04-19T20:16:35.501Z,23.40
2023-04-19T20:19:38.767Z,21.80
2023-04-19T20:22:42.584Z,21.40
2023-04-19T20:25:45.755Z,23.00
2023-04-19T20:28:51.897Z,21.60
2023-04-19T20:31:55.052Z,22.50
2023-04-19T20:34:59.450Z,24.00
2023-04-19T20:38:03.256Z,24.40
2023-04-19T20:41:06.780Z,25.60
2023-04-19T20:44:11.775Z,27.00
2023-04-19T20:47:15.092Z,22.00
2023-04-19T20:50:18.229Z,28.80
2023-04-19T20:53:21.435Z,24.60
2023-04-19T20:56:24.668Z,25.00
2023-04-19T20:59:29.318Z,24.60
2023-04-19T21:02:32.823Z,20.40
2023-04-19T21:05:36.450Z,27.00
2023-04-19T21:08:39.747Z,26.00
2023-04-19T21:11:43.021Z,27.00
2023-04-19T21:14:49.400Z,27.75
2023-04-19T21:17:52.898Z,23.80
2023-04-19T21:20:56.107Z,28.20
2023-04-19T21:23:59.328Z,23.00
2023-04-19T21:27:02.629Z,25.20
2023-04-19T21:30:09.850Z,27.20
2023-04-19T21:33:13.204Z,26.80
2023-04-19T21:36:16.393Z,28.00
2023-04-19T21:39:20.017Z,28.00
2023-04-19T21:42:23.266Z,23.00
2023-04-19T21:45:28.036Z,26.60
2023-04-19T21:48:31.560Z,27.40
2023-04-19T21:51:34.867Z,26.00
2023-04-19T21:54:38.212Z,26.75
2023-04-19T21:57:41.484Z,25.60
2023-04-19T22:00:46.402Z,29.40
2023-04-19T22:03:49.777Z,27.80
2023-04-19T22:06:53.950Z,32.40
2023-04-19T22:09:57.414Z,27.75
2023-04-19T22:13:02.476Z,27.50
2023-04-19T22:16:08.356Z,26.75
2023-04-19T22:19:11.927Z,27.00
2023-04-19T22:22:15.325Z,26.00
2023-04-19T22:25:18.653Z,27.80
2023-04-19T22:28:21.952Z,32.60
2023-04-19T22:31:27.018Z,24.40
2023-04-19T22:34:30.556Z,31.20
2023-04-19T22:37:33.903Z,30.00
2023-04-19T22:40:40.362Z,27.00
2023-04-19T22:43:44.600Z,29.60
2023-04-19T22:46:49.666Z,27.00
2023-04-19T22:49:53.056Z,30.00
2023-04-19T22:52:56.350Z,32.00
2023-04-19T22:55:59.871Z,39.60
2023-04-19T22:59:02.992Z,36.60
2023-04-19T23:02:07.726Z,42.60
2023-04-19T23:05:11.400Z,47.00
2023-04-19T23:08:15.219Z,48.60
2023-04-19T23:11:18.491Z,51.40
2023-04-19T23:14:22.286Z,49.20
2023-04-19T23:17:26.995Z,52.00
2023-04-19T23:20:30.404Z,50.00
2023-04-19T23:23:33.695Z,47.80
2023-04-19T23:26:36.879Z,49.00
2023-04-19T23:29:40.125Z,49.00
2023-04-19T23:32:44.849Z,47.00
2023-04-19T23:35:48.219Z,52.50
2023-04-19T23:38:51.422Z,52.00
2023-04-19T23:41:54.618Z,55.00
2023-04-19T23:44:57.897Z,50.00
2023-04-19T23:48:02.658Z,50.00
2023-04-19T23:51:06.202Z,49.20
2023-04-19T23:54:09.488Z,47.00
2023-04-19T23:57:12.684Z,53.00
